Time;durP1;ratioP1;P1;durP2;ratioP2;P2;SDS_P1;SDS_P2;PMS_P1;PMS_P2;Temp;Humidity;BMP_temperature;BMP_pressure;BME280_temperature;BME280_humidity;BME280_pressure;Samples;Min_cycle;Max_cycle;Signal;HPM_P1;HPM_P2
2023/12/07 00:00:05;;;;;;;4.65;2.65;;;2.40;99.90;;;;;;4990186;28;20052;-75
2023/12/07 00:02:30;;;;;;;2.35;2.03;;;2.40;99.90;;;;;;4992605;28;20044;-76
2023/12/07 00:04:56;;;;;;;4.10;3.50;;;2.40;99.90;;;;;;5001065;28;20061;-76
2023/12/07 00:07:21;;;;;;;8.60;2.65;;;2.40;99.90;;;;;;5022627;28;20057;-76
2023/12/07 00:09:47;;;;;;;6.37;3.07;;;2.50;99.90;;;;;;5004743;28;20045;-78
2023/12/07 00:12:12;;;;;;;3.90;2.97;;;2.40;99.90;;;;;;4989348;28;20519;-77
2023/12/07 00:14:38;;;;;;;4.53;2.57;;;2.40;99.90;;;;;;4988796;28;20054;-76
2023/12/07 00:17:04;;;;;;;4.00;3.67;;;2.40;99.90;;;;;;5010246;28;20030;-76
2023/12/07 00:19:29;;;;;;;4.07;3.17;;;2.40;99.90;;;;;;5004918;28;20097;-77
2023/12/07 00:21:55;;;;;;;3.67;2.17;;;2.30;99.90;;;;;;4982249;28;20074;-77
2023/12/07 00:24:20;;;;;;;1.55;1.48;;;2.30;99.90;;;;;;4985837;28;20489;-77
2023/12/07 00:26:46;;;;;;;1.88;1.67;;;2.20;99.90;;;;;;4991604;28;20034;-76
2023/12/07 00:29:11;;;;;;;5.15;2.13;;;2.20;99.90;;;;;;4992572;28;20129;-77
2023/12/07 00:31:37;;;;;;;2.28;2.08;;;2.10;99.90;;;;;;4986006;28;20484;-77
2023/12/07 00:34:03;;;;;;;1.38;1.27;;;2.10;99.90;;;;;;4991711;28;20077;-77
2023/12/07 00:36:29;;;;;;;1.88;1.77;;;2.00;99.90;;;;;;4999610;28;20046;-77
2023/12/07 00:38:54;;;;;;;2.58;2.22;;;2.00;99.90;;;;;;4984829;28;20046;-77
2023/12/07 00:41:20;;;;;;;2.67;2.13;;;2.00;99.90;;;;;;4994723;28;20069;-77
2023/12/07 00:43:45;;;;;;;2.20;2.10;;;1.90;99.90;;;;;;5003164;28;20532;-76
2023/12/07 00:46:11;;;;;;;1.63;1.50;;;1.90;99.90;;;;;;4997678;28;20076;-77
2023/12/07 00:48:36;;;;;;;1.85;1.75;;;1.90;99.90;;;;;;5007991;28;20563;-76
2023/12/07 00:51:02;;;;;;;3.03;2.55;;;1.80;99.90;;;;;;4999608;28;20060;-76
2023/12/07 00:53:28;;;;;;;2.20;2.03;;;1.70;99.90;;;;;;5004754;28;20065;-76
2023/12/07 00:55:54;;;;;;;4.00;1.42;;;1.70;99.90;;;;;;4996311;28;20843;-77
2023/12/07 00:58:19;;;;;;;2.83;2.65;;;1.70;99.90;;;;;;4982980;28;20465;-76
2023/12/07 01:00:45;;;;;;;2.23;2.13;;;1.70;99.90;;;;;;4983193;28;20058;-76
2023/12/07 01:03:10;;;;;;;1.33;1.10;;;1.70;99.90;;;;;;4991015;28;20053;-76
2023/12/07 01:05:36;;;;;;;2.30;2.08;;;1.70;99.90;;;;;;5021690;28;20542;-75
2023/12/07 01:08:01;;;;;;;4.13;2.58;;;1.60;99.90;;;;;;4994151;28;20670;-75
2023/12/07 01:10:27;;;;;;;4.37;2.80;;;1.60;99.90;;;;;;4982904;28;20042;-78
2023/12/07 01:12:53;;;;;;;2.53;2.00;;;1.60;99.90;;;;;;4983184;28;20049;-76
2023/12/07 01:15:18;;;;;;;3.00;2.03;;;1.70;99.90;;;;;;4982659;28;20047;-77
2023/12/07 01:17:44;;;;;;;2.00;1.88;;;1.70;99.90;;;;;;4984436;28;20456;-77
2023/12/07 01:20:13;;;;;;;4.23;2.13;;;1.70;99.90;;;;;;4992943;28;20054;-78
2023/12/07 01:22:42;;;;;;;2.70;2.50;;;1.70;99.90;;;;;;5001259;28;20456;-77
2023/12/07 01:25:08;;;;;;;2.47;2.27;;;1.70;99.90;;;;;;4985121;28;20057;-77
2023/12/07 01:27:34;;;;;;;4.20;2.13;;;1.80;99.90;;;;;;5001583;28;20157;-77
2023/12/07 01:29:59;;;;;;;2.07;1.77;;;1.80;99.90;;;;;;4994003;28;20053;-76
2023/12/07 01:32:25;;;;;;;3.22;2.28;;;1.80;99.90;;;;;;4981949;28;20556;-77
2023/12/07 01:34:51;;;;;;;2.63;2.43;;;1.80;99.90;;;;;;4997197;28;20057;-77
2023/12/07 01:37:16;;;;;;;2.57;2.43;;;1.80;99.90;;;;;;5002169;28;20042;-77
2023/12/07 01:39:43;;;;;;;2.93;2.53;;;1.80;99.90;;;;;;5002709;28;20096;-76
2023/12/07 01:42:09;;;;;;;2.57;1.27;;;1.80;99.90;;;;;;5001426;28;20081;-76
2023/12/07 01:44:34;;;;;;;2.67;2.47;;;1.70;99.90;;;;;;4989576;28;20038;-77
2023/12/07 01:47:01;;;;;;;2.50;1.77;;;1.80;99.90;;;;;;4983347;28;20038;-76
2023/12/07 01:49:28;;;;;;;3.17;2.30;;;1.70;99.90;;;;;;4982092;28;20046;-77
2023/12/07 01:51:54;;;;;;;2.23;2.13;;;1.70;99.90;;;;;;4980181;28;20047;-77
2023/12/07 01:54:20;;;;;;;2.13;2.03;;;1.70;99.90;;;;;;4990743;28;20571;-76
2023/12/07 01:56:46;;;;;;;2.53;2.27;;;1.70;99.90;;;;;;5011036;28;20054;-77
2023/12/07 01:59:11;;;;;;;3.33;1.60;;;1.60;99.90;;;;;;4990694;28;20049;-76
2023/12/07 02:01:37;;;;;;;1.90;1.80;;;1.50;99.90;;;;;;4975111;28;20548;-77
2023/12/07 02:04:03;;;;;;;3.17;2.30;;;1.60;99.90;;;;;;4984585;28;20057;-77
2023/12/07 02:06:29;;;;;;;1.73;1.63;;;1.60;99.90;;;;;;4985711;28;20135;-76
2023/12/07 02:08:55;;;;;;;1.63;1.53;;;1.60;99.90;;;;;;4993031;28;20282;-77
2023/12/07 02:11:21;;;;;;;3.80;1.60;;;1.50;99.90;;;;;;4997888;28;20031;-76
2023/12/07 02:13:48;;;;;;;3.73;1.80;;;1.50;99.90;;;;;;4983461;28;20056;-77
2023/12/07 02:16:45;;;;;;;2.07;1.80;;;1.40;99.90;;;;;;4982392;28;20050;-77
2023/12/07 02:19:19;;;;;;;1.43;1.43;;;1.30;99.90;;;;;;4981116;28;20057;-76
2023/12/07 02:21:52;;;;;;;2.53;1.07;;;1.30;99.90;;;;;;4987876;28;20328;-77
2023/12/07 02:24:21;;;;;;;2.00;1.87;;;1.30;99.90;;;;;;4999513;28;20727;-77
2023/12/07 02:26:47;;;;;;;1.77;1.67;;;1.20;99.90;;;;;;5000869;28;20045;-77
2023/12/07 02:29:13;;;;;;;1.47;1.37;;;1.20;99.90;;;;;;4994906;28;20099;-77
2023/12/07 02:31:38;;;;;;;1.87;1.20;;;1.10;99.90;;;;;;4983286;28;20057;-77
2023/12/07 02:34:04;;;;;;;1.37;1.27;;;1.10;99.90;;;;;;4980846;28;20038;-77
2023/12/07 02:36:32;;;;;;;2.27;2.10;;;1.00;99.90;;;;;;4980221;28;20611;-77
2023/12/07 02:39:01;;;;;;;3.00;2.80;;;1.00;99.90;;;;;;4981005;28;20043;-77
2023/12/07 02:41:27;;;;;;;3.80;2.50;;;1.00;99.90;;;;;;4984053;28;20121;-76
2023/12/07 02:43:54;;;;;;;4.70;2.30;;;1.00;99.90;;;;;;4980982;28;20050;-77
2023/12/07 02:46:20;;;;;;;1.57;1.20;;;1.00;99.90;;;;;;4981598;28;20133;-76
2023/12/07 02:48:46;;;;;;;1.27;1.27;;;1.00;99.90;;;;;;4981422;28;20129;-77
2023/12/07 02:51:11;;;;;;;1.63;1.53;;;1.00;99.90;;;;;;4992913;28;20045;-77
2023/12/07 02:53:37;;;;;;;2.33;2.13;;;1.00;99.90;;;;;;4965965;28;20101;-78
2023/12/07 02:56:02;;;;;;;2.13;1.93;;;0.90;99.90;;;;;;4973720;28;20049;-76
2023/12/07 02:58:28;;;;;;;1.73;1.63;;;0.90;99.90;;;;;;4994875;28;20125;-78
2023/12/07 03:00:54;;;;;;;5.10;2.60;;;0.80;99.90;;;;;;4983704;28;20497;-78
2023/12/07 03:03:19;;;;;;;1.43;1.33;;;0.90;99.90;;;;;;4999141;28;20507;-76
2023/12/07 03:05:45;;;;;;;1.77;1.67;;;0.90;99.90;;;;;;4995076;28;20053;-76
2023/12/07 03:08:10;;;;;;;1.70;1.40;;;0.80;99.90;;;;;;4995874;28;20118;-77
2023/12/07 03:10:36;;;;;;;1.40;1.37;;;0.80;99.90;;;;;;4990173;28;20043;-77
2023/12/07 03:13:01;;;;;;;0.67;0.67;;;0.80;99.90;;;;;;5016793;28;20045;-78
2023/12/07 03:15:27;;;;;;;2.47;2.27;;;0.80;99.90;;;;;;5003285;28;20531;-76
2023/12/07 03:17:52;;;;;;;1.87;1.50;;;0.80;99.90;;;;;;4998244;28;20037;-76
2023/12/07 03:20:18;;;;;;;2.17;1.73;;;0.80;99.90;;;;;;4999783;28;20402;-76
2023/12/07 03:22:44;;;;;;;2.10;2.00;;;0.80;99.90;;;;;;4998407;28;20099;-78
2023/12/07 03:25:10;;;;;;;1.80;1.20;;;0.80;99.90;;;;;;5015779;28;20049;-77
2023/12/07 03:27:35;;;;;;;1.63;1.53;;;0.80;99.90;;;;;;5013937;28;20606;-76
2023/12/07 03:30:02;;;;;;;4.37;2.67;;;0.80;99.90;;;;;;5002333;28;20718;-78
2023/12/07 03:32:27;;;;;;;1.90;1.80;;;0.80;99.90;;;;;;5002834;28;20107;-78
2023/12/07 03:34:53;;;;;;;2.27;1.67;;;0.80;99.90;;;;;;4985941;28;20137;-78
2023/12/07 03:37:18;;;;;;;2.20;2.03;;;0.80;99.90;;;;;;5001093;28;20053;-78
2023/12/07 03:39:44;;;;;;;1.37;1.37;;;0.80;99.90;;;;;;5002580;28;20042;-76
2023/12/07 03:42:09;;;;;;;1.83;1.67;;;0.80;99.90;;;;;;5002069;28;20409;-77
2023/12/07 03:44:35;;;;;;;3.07;2.03;;;0.80;99.90;;;;;;4985742;28;20052;-76
2023/12/07 03:47:01;;;;;;;1.47;1.30;;;0.70;99.90;;;;;;5002079;28;20408;-78
2023/12/07 03:49:26;;;;;;;4.73;1.43;;;0.80;99.90;;;;;;5001715;28;20409;-77
2023/12/07 03:51:52;;;;;;;4.27;3.03;;;0.80;99.90;;;;;;5001174;28;20052;-76
2023/12/07 03:54:17;;;;;;;3.53;2.17;;;0.80;99.90;;;;;;5002941;28;20413;-76
2023/12/07 03:56:43;;;;;;;3.03;2.83;;;0.90;99.90;;;;;;4993913;28;20046;-78
2023/12/07 03:59:09;;;;;;;2.77;1.73;;;0.90;99.90;;;;;;4991959;28;20609;-78
2023/12/07 04:01:34;;;;;;;9.63;2.97;;;0.80;99.90;;;;;;4995931;28;20040;-77
2023/12/07 04:04:00;;;;;;;1.83;1.73;;;0.80;99.90;;;;;;4983865;28;20388;-77
2023/12/07 04:06:26;;;;;;;7.30;2.70;;;0.90;99.90;;;;;;4981431;28;20050;-76
2023/12/07 04:08:52;;;;;;;1.87;1.77;;;0.80;99.90;;;;;;4993369;28;20412;-78
2023/12/07 04:11:18;;;;;;;3.27;2.50;;;0.80;99.90;;;;;;5001035;28;20038;-79
2023/12/07 04:13:45;;;;;;;1.40;1.30;;;0.80;99.90;;;;;;4995394;28;20045;-78
2023/12/07 04:16:11;;;;;;;1.60;1.60;;;0.90;99.90;;;;;;4991065;28;20038;-76
2023/12/07 04:18:37;;;;;;;1.70;1.33;;;0.80;99.90;;;;;;4986575;28;20357;-77
2023/12/07 04:21:05;;;;;;;2.83;2.70;;;0.80;99.90;;;;;;4990448;28;20037;-76
2023/12/07 04:23:30;;;;;;;1.80;1.70;;;0.80;99.90;;;;;;5021353;28;20080;-78
2023/12/07 04:25:56;;;;;;;0.87;0.87;;;0.80;99.90;;;;;;5021560;28;20514;-78
2023/12/07 04:28:21;;;;;;;1.77;1.67;;;0.80;99.90;;;;;;5021181;28;20110;-76
2023/12/07 04:30:47;;;;;;;1.53;1.47;;;0.80;99.90;;;;;;5015291;28;20049;-77
2023/12/07 04:33:12;;;;;;;2.67;2.30;;;0.80;99.90;;;;;;4972290;28;20341;-76
2023/12/07 04:35:38;;;;;;;2.07;1.97;;;0.80;99.90;;;;;;5022029;28;20407;-78
2023/12/07 04:38:04;;;;;;;3.83;2.47;;;0.80;99.90;;;;;;5020887;28;20069;-78
2023/12/07 04:40:29;;;;;;;1.43;1.33;;;0.70;99.90;;;;;;5019150;28;20041;-75
2023/12/07 04:42:55;;;;;;;3.83;1.70;;;0.70;99.90;;;;;;4965740;28;20381;-77
2023/12/07 04:45:20;;;;;;;1.30;1.17;;;0.70;99.90;;;;;;4981653;28;20054;-78
2023/12/07 04:47:46;;;;;;;2.87;1.57;;;0.60;99.90;;;;;;4981789;28;20078;-78
2023/12/07 04:50:12;;;;;;;2.10;2.00;;;0.70;99.90;;;;;;4985546;28;20074;-76
2023/12/07 04:52:38;;;;;;;1.73;1.63;;;0.60;99.90;;;;;;4981490;28;20531;-77
2023/12/07 04:55:06;;;;;;;1.47;1.37;;;0.60;99.90;;;;;;4981820;28;20437;-77
2023/12/07 04:57:32;;;;;;;2.03;1.93;;;0.60;99.90;;;;;;4981570;28;20713;-77
2023/12/07 04:59:58;;;;;;;1.93;1.83;;;0.60;99.90;;;;;;4981847;28;20117;-78
2023/12/07 05:02:24;;;;;;;2.90;2.63;;;0.60;99.90;;;;;;4993837;28;20132;-78
2023/12/07 05:04:49;;;;;;;2.07;1.97;;;0.60;99.90;;;;;;5000419;28;20484;-77
2023/12/07 05:07:15;;;;;;;2.03;1.93;;;0.60;99.90;;;;;;5000255;28;20058;-77
2023/12/07 05:09:40;;;;;;;1.57;1.50;;;0.60;99.90;;;;;;4995132;28;20236;-76
2023/12/07 05:12:06;;;;;;;2.33;1.70;;;0.50;99.90;;;;;;4980956;28;20105;-79
2023/12/07 05:14:32;;;;;;;1.40;1.00;;;0.50;99.90;;;;;;4982305;28;20126;-77
2023/12/07 05:16:58;;;;;;;2.67;2.40;;;0.40;99.90;;;;;;4980491;28;20041;-78
2023/12/07 05:19:25;;;;;;;2.93;2.27;;;0.40;99.90;;;;;;4994012;28;20042;-77
2023/12/07 05:21:51;;;;;;;2.77;2.37;;;0.40;99.90;;;;;;4983514;28;20357;-76
2023/12/07 05:24:17;;;;;;;1.97;1.83;;;0.40;99.90;;;;;;4982733;28;20054;-77
2023/12/07 05:26:43;;;;;;;5.27;1.83;;;0.40;99.90;;;;;;4995900;28;20092;-78
2023/12/07 05:29:10;;;;;;;6.33;2.47;;;0.40;99.90;;;;;;5000868;28;20133;-78
2023/12/07 05:31:36;;;;;;;3.50;3.27;;;0.30;99.90;;;;;;4988206;28;20660;-77
2023/12/07 05:34:02;;;;;;;3.37;3.00;;;0.40;99.90;;;;;;4983495;28;20046;-76
2023/12/07 05:36:27;;;;;;;3.53;3.10;;;0.30;99.90;;;;;;4982226;28;20749;-76
2023/12/07 05:38:53;;;;;;;0.97;0.97;;;0.30;99.90;;;;;;4983178;28;20666;-78
2023/12/07 05:41:19;;;;;;;5.53;3.63;;;0.30;99.90;;;;;;4983702;28;20049;-77
2023/12/07 05:43:44;;;;;;;3.20;3.00;;;0.30;99.90;;;;;;5001718;28;20050;-76
2023/12/07 05:46:10;;;;;;;2.30;2.10;;;0.30;99.90;;;;;;4983003;28;20046;-77
2023/12/07 05:48:35;;;;;;;2.47;2.37;;;0.30;99.90;;;;;;4983385;28;20378;-77
2023/12/07 05:51:04;;;;;;;2.53;2.33;;;0.20;99.90;;;;;;4964157;28;20046;-78
2023/12/07 05:53:32;;;;;;;3.00;1.53;;;0.20;99.90;;;;;;5002544;28;20048;-77
2023/12/07 05:55:58;;;;;;;2.17;2.07;;;0.20;99.90;;;;;;5001761;28;20050;-77
2023/12/07 05:58:24;;;;;;;2.47;2.33;;;0.20;99.90;;;;;;5002275;28;20045;-77
2023/12/07 06:00:49;;;;;;;3.53;3.00;;;0.20;99.90;;;;;;4999789;28;20068;-77
2023/12/07 06:03:15;;;;;;;3.30;3.03;;;0.20;99.90;;;;;;4974345;28;20049;-76
2023/12/07 06:05:41;;;;;;;2.60;2.40;;;0.20;99.90;;;;;;4989241;28;20054;-78
2023/12/07 06:08:07;;;;;;;4.07;3.40;;;0.10;99.90;;;;;;4999096;28;20042;-77
2023/12/07 06:10:32;;;;;;;3.10;2.70;;;0.10;99.90;;;;;;4998642;28;20424;-76
2023/12/07 06:13:00;;;;;;;1.83;1.73;;;0.00;99.90;;;;;;4990094;28;20500;-76
2023/12/07 06:15:27;;;;;;;3.07;2.77;;;0.00;99.90;;;;;;4990119;28;20057;-76
2023/12/07 06:17:52;;;;;;;1.80;1.70;;;0.00;99.90;;;;;;4981438;28;20516;-75
2023/12/07 06:20:18;;;;;;;3.03;2.67;;;0.00;99.90;;;;;;5004317;28;20042;-77
2023/12/07 06:22:44;;;;;;;2.57;1.70;;;0.00;99.90;;;;;;4982456;28;20049;-77
2023/12/07 06:25:09;;;;;;;3.27;3.07;;;0.00;99.90;;;;;;5002091;28;20412;-76
2023/12/07 06:27:35;;;;;;;4.40;2.80;;;0.00;99.90;;;;;;4991114;28;20054;-75
2023/12/07 06:30:01;;;;;;;2.97;2.40;;;0.00;99.90;;;;;;5009397;28;20172;-77
2023/12/07 06:32:27;;;;;;;2.97;1.70;;;0.00;99.90;;;;;;4969307;28;20052;-77
2023/12/07 06:34:53;;;;;;;3.83;3.63;;;0.00;99.90;;;;;;4989336;28;20046;-76
2023/12/07 06:37:20;;;;;;;2.87;2.73;;;0.00;99.90;;;;;;4997231;28;20038;-75
2023/12/07 06:39:45;;;;;;;2.57;2.37;;;-0.10;99.90;;;;;;4994406;28;20706;-77
2023/12/07 06:42:11;;;;;;;3.20;2.70;;;-0.10;99.90;;;;;;4991496;28;20048;-75
2023/12/07 06:44:37;;;;;;;2.57;2.43;;;-0.10;99.90;;;;;;4975053;28;20045;-75
2023/12/07 06:47:04;;;;;;;3.13;2.37;;;-0.10;99.90;;;;;;4994439;28;20046;-75
2023/12/07 06:49:30;;;;;;;2.53;2.40;;;-0.10;99.90;;;;;;4986360;28;20054;-75
2023/12/07 06:51:56;;;;;;;2.70;2.53;;;-0.10;99.90;;;;;;4969745;28;20046;-75
2023/12/07 06:54:21;;;;;;;1.70;1.60;;;-0.10;99.90;;;;;;4987478;28;20046;-75
2023/12/07 06:56:47;;;;;;;2.80;2.70;;;-0.10;99.90;;;;;;4988860;28;20496;-76
2023/12/07 06:59:13;;;;;;;2.87;2.60;;;-0.10;99.90;;;;;;4991568;28;20042;-85
2023/12/07 07:01:39;;;;;;;3.40;2.53;;;-0.10;99.90;;;;;;4979929;28;20160;-76
2023/12/07 07:04:05;;;;;;;4.30;2.67;;;-0.10;99.90;;;;;;4993790;28;20042;-75
2023/12/07 07:06:30;;;;;;;1.50;1.33;;;-0.10;99.90;;;;;;5003005;28;20153;-75
2023/12/07 07:08:56;;;;;;;3.30;3.00;;;-0.10;99.90;;;;;;4991167;28;20056;-76
2023/12/07 07:11:22;;;;;;;8.17;3.67;;;-0.20;99.90;;;;;;4992983;28;20518;-76
2023/12/07 07:13:47;;;;;;;2.30;2.17;;;-0.20;99.90;;;;;;4992062;28;20122;-77
2023/12/07 07:16:13;;;;;;;3.23;3.03;;;-0.20;99.90;;;;;;4985859;28;20539;-74
2023/12/07 07:18:39;;;;;;;3.30;3.00;;;-0.20;99.90;;;;;;4991599;28;20141;-74
2023/12/07 07:21:06;;;;;;;4.10;3.23;;;-0.20;99.90;;;;;;4982822;28;20521;-74
2023/12/07 07:23:31;;;;;;;2.53;2.43;;;-0.30;99.90;;;;;;4983166;28;20054;-74
2023/12/07 07:25:57;;;;;;;2.60;1.77;;;-0.30;99.90;;;;;;4982589;28;20443;-74
2023/12/07 07:28:22;;;;;;;2.67;2.47;;;-0.30;99.90;;;;;;4972966;28;20093;-74
2023/12/07 07:30:48;;;;;;;2.43;2.23;;;-0.20;99.90;;;;;;4975205;28;20126;-75
2023/12/07 07:33:13;;;;;;;2.57;2.13;;;-0.30;99.90;;;;;;4989522;28;20057;-88
2023/12/07 07:35:39;;;;;;;2.60;2.43;;;-0.20;99.90;;;;;;4978079;28;20297;-74
2023/12/07 07:38:05;;;;;;;9.87;4.30;;;-0.20;99.90;;;;;;4983685;28;20070;-75
2023/12/07 07:40:30;;;;;;;4.03;3.73;;;-0.20;99.90;;;;;;4999120;28;20318;-74
2023/12/07 07:42:56;;;;;;;5.00;4.70;;;-0.30;99.90;;;;;;5001860;28;20045;-75
2023/12/07 07:45:21;;;;;;;3.73;3.43;;;-0.20;99.90;;;;;;5001719;28;20046;-74
2023/12/07 07:47:47;;;;;;;3.23;2.93;;;-0.30;99.90;;;;;;5003960;28;20116;-74
2023/12/07 07:50:13;;;;;;;7.07;1.97;;;-0.30;99.90;;;;;;5002425;28;20685;-74
2023/12/07 07:52:40;;;;;;;3.17;2.97;;;-0.20;99.90;;;;;;4994129;28;20035;-75
2023/12/07 07:55:06;;;;;;;3.30;3.10;;;-0.20;99.90;;;;;;4997182;28;20053;-74
2023/12/07 07:57:31;;;;;;;1.87;1.50;;;-0.20;99.90;;;;;;4999890;28;20393;-74
2023/12/07 07:59:57;;;;;;;3.67;3.47;;;-0.20;99.90;;;;;;4982618;28;20480;-74
2023/12/07 08:02:23;;;;;;;3.77;3.57;;;-0.20;99.90;;;;;;4995228;28;20120;-75
2023/12/07 08:04:51;;;;;;;5.33;2.60;;;-0.20;99.90;;;;;;5002581;28;20504;-75
2023/12/07 08:07:17;;;;;;;3.43;3.03;;;-0.20;99.90;;;;;;5002223;28;20034;-74
2023/12/07 08:09:42;;;;;;;5.13;4.53;;;-0.20;99.90;;;;;;4984457;28;20489;-75
2023/12/07 08:12:08;;;;;;;4.90;4.63;;;-0.20;99.90;;;;;;4981750;28;20129;-74
2023/12/07 08:14:36;;;;;;;2.67;2.47;;;-0.20;99.90;;;;;;4982692;28;20038;-74
2023/12/07 08:17:03;;;;;;;6.47;5.77;;;-0.20;99.90;;;;;;4981823;28;20591;-74
2023/12/07 08:19:29;;;;;;;6.33;5.77;;;-0.20;99.90;;;;;;4965984;28;20042;-75
2023/12/07 08:21:54;;;;;;;9.63;5.03;;;-0.20;99.90;;;;;;4996797;28;20038;-75
2023/12/07 08:24:20;;;;;;;4.30;4.00;;;-0.10;99.90;;;;;;5002343;28;20495;-75
2023/12/07 08:26:45;;;;;;;5.23;4.73;;;-0.20;99.90;;;;;;5011530;28;20045;-78
2023/12/07 08:29:11;;;;;;;6.20;5.50;;;-0.10;99.90;;;;;;4983993;28;20042;-76
2023/12/07 08:31:37;;;;;;;2.97;2.80;;;-0.10;99.90;;;;;;4991448;28;20179;-76
2023/12/07 08:34:02;;;;;;;2.13;2.03;;;-0.10;99.90;;;;;;5007831;28;20050;-77
2023/12/07 08:36:28;;;;;;;5.17;4.67;;;-0.10;99.90;;;;;;4984206;28;20439;-76
2023/12/07 08:38:54;;;;;;;7.50;6.27;;;-0.10;99.90;;;;;;4989548;28;20038;-76
2023/12/07 08:41:20;;;;;;;5.77;5.37;;;-0.10;99.90;;;;;;5002739;28;20065;-76
2023/12/07 08:43:45;;;;;;;4.60;4.23;;;-0.10;99.90;;;;;;4995497;28;20420;-77
2023/12/07 08:46:11;;;;;;;6.53;6.13;;;-0.10;99.90;;;;;;4999434;28;20049;-75
2023/12/07 08:48:39;;;;;;;14.90;7.77;;;-0.10;99.90;;;;;;4989826;28;20046;-75
2023/12/07 08:51:05;;;;;;;7.00;6.50;;;-0.10;99.90;;;;;;4999606;28;20057;-75
2023/12/07 08:53:31;;;;;;;5.37;4.87;;;0.00;99.90;;;;;;4993818;28;20034;-74
2023/12/07 08:55:57;;;;;;;5.57;5.07;;;0.00;99.90;;;;;;4988118;28;20429;-76
2023/12/07 08:58:23;;;;;;;14.47;7.23;;;0.00;99.90;;;;;;5010579;28;20050;-75
2023/12/07 09:00:48;;;;;;;19.20;9.93;;;0.00;99.90;;;;;;5003177;28;20508;-75
2023/12/07 09:03:14;;;;;;;9.63;8.60;;;0.10;99.90;;;;;;5011178;28;20057;-75
2023/12/07 09:05:39;;;;;;;14.63;8.47;;;0.10;99.90;;;;;;4987335;28;20144;-75
2023/12/07 09:08:06;;;;;;;8.20;7.43;;;0.10;99.90;;;;;;4992614;28;20038;-75
2023/12/07 09:10:32;;;;;;;10.00;7.50;;;0.20;99.90;;;;;;4980974;28;20042;-75
2023/12/07 09:12:57;;;;;;;7.30;6.73;;;0.20;99.90;;;;;;4983510;28;20038;-75
2023/12/07 09:15:23;;;;;;;5.23;4.83;;;0.20;99.90;;;;;;4989081;28;20158;-76
2023/12/07 09:17:49;;;;;;;5.20;4.90;;;0.30;99.90;;;;;;4965027;28;20038;-75
2023/12/07 09:20:14;;;;;;;7.00;6.30;;;0.30;99.90;;;;;;4997376;28;20550;-75
2023/12/07 09:22:44;;;;;;;11.80;6.90;;;0.40;99.90;;;;;;5000669;28;20135;-76
2023/12/07 09:25:10;;;;;;;6.03;5.63;;;0.40;99.90;;;;;;4999617;28;20072;-76
2023/12/07 09:27:37;;;;;;;6.47;5.47;;;0.40;99.90;;;;;;5000876;28;20125;-76
2023/12/07 09:30:12;;;;;;;6.20;5.80;;;0.50;99.90;;;;;;4998487;28;20070;-81
2023/12/07 09:32:39;;;;;;;7.83;6.67;;;0.50;99.90;;;;;;4973911;28;20042;-75
2023/12/07 09:35:06;;;;;;;7.63;6.77;;;0.50;99.90;;;;;;4993022;28;20054;-75
2023/12/07 09:37:33;;;;;;;5.70;5.33;;;0.50;99.90;;;;;;4983762;28;20786;-74
2023/12/07 09:39:59;;;;;;;6.33;5.83;;;0.50;99.90;;;;;;4994342;28;20357;-75
2023/12/07 09:42:25;;;;;;;7.20;6.63;;;0.50;99.90;;;;;;4997813;28;20429;-75
2023/12/07 09:44:50;;;;;;;12.10;7.70;;;0.50;99.90;;;;;;4997508;28;20045;-75
2023/12/07 09:47:16;;;;;;;6.80;6.17;;;0.60;99.90;;;;;;4991081;28;20030;-75
2023/12/07 09:49:42;;;;;;;6.20;5.70;;;0.60;99.90;;;;;;4983481;28;20141;-76
2023/12/07 09:52:08;;;;;;;7.53;7.00;;;0.60;99.90;;;;;;4972274;28;20477;-75
2023/12/07 09:54:35;;;;;;;11.03;10.17;;;0.70;99.90;;;;;;4983647;28;20214;-75
2023/12/07 09:57:01;;;;;;;6.17;5.77;;;0.70;99.90;;;;;;4995307;28;20310;-75
2023/12/07 09:59:27;;;;;;;11.47;10.37;;;0.70;99.90;;;;;;4988457;28;20124;-75
2023/12/07 10:01:52;;;;;;;7.23;6.63;;;0.70;99.90;;;;;;4992882;28;20473;-75
2023/12/07 10:04:25;;;;;;;11.17;8.80;;;0.80;99.90;;;;;;4983592;28;20254;-76
2023/12/07 10:06:52;;;;;;;15.80;9.10;;;0.80;99.90;;;;;;4985586;28;20144;-76
2023/12/07 10:09:21;;;;;;;9.10;8.00;;;0.80;99.90;;;;;;4992403;28;20050;-76
2023/12/07 10:11:47;;;;;;;9.93;8.80;;;0.80;99.90;;;;;;4999529;28;20181;-75
2023/12/07 10:14:14;;;;;;;8.00;7.40;;;0.80;99.90;;;;;;4979339;28;20059;-75
2023/12/07 10:16:53;;;;;;;11.10;10.10;;;0.90;99.90;;;;;;4987619;28;20038;-76
2023/12/07 10:19:21;;;;;;;6.90;6.33;;;0.90;99.90;;;;;;4986833;28;20038;-76
2023/12/07 10:21:54;;;;;;;14.63;9.40;;;0.90;99.90;;;;;;4994019;28;20041;-75
2023/12/07 10:24:20;;;;;;;;;;;1.00;99.90;;;;;;4986062;28;20049;-75
2023/12/07 10:26:47;;;;;;;12.00;10.27;;;1.00;99.90;;;;;;4990825;28;20572;-75
2023/12/07 10:29:12;;;;;;;13.13;8.63;;;1.00;99.90;;;;;;4972757;28;20050;-76
2023/12/07 10:31:38;;;;;;;7.90;7.03;;;1.00;99.90;;;;;;4990582;28;20046;-75
2023/12/07 10:34:05;;;;;;;12.07;10.97;;;1.10;99.90;;;;;;4982683;28;20479;-76
2023/12/07 10:36:32;;;;;;;15.03;10.53;;;1.10;99.90;;;;;;4973722;28;20053;-75
2023/12/07 10:38:58;;;;;;;16.90;9.17;;;1.10;99.90;;;;;;4994520;28;20539;-77
2023/12/07 10:41:24;;;;;;;7.77;6.87;;;1.10;99.90;;;;;;4988042;28;20035;-74
2023/12/07 10:43:59;;;;;;;11.07;9.97;;;1.10;99.90;;;;;;5001627;28;20050;-76
2023/12/07 10:46:26;;;;;;;12.63;7.00;;;1.10;99.90;;;;;;4990092;28;20051;-76
2023/12/07 10:48:59;;;;;;;10.93;9.40;;;1.20;99.90;;;;;;4990468;28;20532;-76
2023/12/07 10:51:49;;;;;;;9.83;9.03;;;1.20;99.90;;;;;;4962946;28;20050;-77
2023/12/07 10:54:18;;;;;;;21.17;8.03;;;1.20;99.90;;;;;;4982090;28;20133;-76
2023/12/07 10:56:45;;;;;;;8.53;7.70;;;1.20;99.90;;;;;;4989023;28;20138;-77
2023/12/07 10:59:15;;;;;;;12.40;9.53;;;1.20;99.90;;;;;;5007768;28;20258;-75
2023/12/07 11:01:42;;;;;;;12.73;9.40;;;1.20;99.90;;;;;;4984426;28;20042;-75
2023/12/07 11:04:12;;;;;;;9.37;8.67;;;1.30;99.90;;;;;;4999580;28;20057;-76
2023/12/07 11:06:42;;;;;;;6.60;6.00;;;1.30;99.90;;;;;;4998191;28;20057;-76
2023/12/07 11:09:12;;;;;;;13.00;11.90;;;1.30;99.90;;;;;;4984860;28;20046;-76
2023/12/07 11:11:44;;;;;;;15.37;8.93;;;1.40;99.90;;;;;;4994800;28;20377;-75
2023/12/07 11:14:13;;;;;;;10.70;8.07;;;1.40;99.90;;;;;;5001379;28;20225;-74
2023/12/07 11:16:45;;;;;;;11.73;9.17;;;1.40;99.90;;;;;;4973595;28;20096;-75
2023/12/07 11:19:44;;;;;;;12.50;9.35;;;1.40;99.90;;;;;;4997747;28;20054;-76
2023/12/07 11:22:13;;;;;;;10.13;9.23;;;1.40;99.90;;;;;;4952897;28;20054;-76
2023/12/07 11:24:57;;;;;;;14.57;9.80;;;1.50;99.90;;;;;;4989348;28;20046;-75
2023/12/07 11:27:24;;;;;;;14.63;8.10;;;1.50;99.90;;;;;;4980025;28;20087;-76
2023/12/07 11:29:51;;;;;;;10.27;9.43;;;1.50;99.90;;;;;;4987812;28;20049;-76
2023/12/07 11:32:17;;;;;;;9.50;8.63;;;1.50;99.90;;;;;;4970249;28;20038;-75
2023/12/07 11:34:44;;;;;;;12.13;8.63;;;1.50;99.90;;;;;;4990528;28;20395;-76
2023/12/07 11:37:15;;;;;;;9.23;8.37;;;1.60;99.90;;;;;;4999821;28;20049;-76
2023/12/07 11:39:41;;;;;;;9.43;8.60;;;1.60;99.90;;;;;;4997955;28;20050;-76
2023/12/07 11:42:17;;;;;;;11.43;8.67;;;1.60;99.90;;;;;;4998240;28;20049;-76
2023/12/07 11:44:45;;;;;;;9.53;8.73;;;1.60;99.90;;;;;;4979695;28;20405;-77
2023/12/07 11:47:16;;;;;;;10.50;8.10;;;1.60;99.90;;;;;;4989708;28;20042;-75
2023/12/07 11:49:43;;;;;;;9.10;7.97;;;1.70;99.90;;;;;;4981663;28;20051;-76
2023/12/07 11:52:21;;;;;;;9.43;8.73;;;1.70;99.90;;;;;;4995669;28;20484;-76
2023/12/07 11:54:48;;;;;;;8.97;8.10;;;1.70;99.90;;;;;;5003389;28;20056;-76
2023/12/07 11:57:15;;;;;;;8.27;7.70;;;1.70;99.90;;;;;;4999954;28;20560;-75
2023/12/07 11:59:41;;;;;;;10.43;8.63;;;1.70;99.90;;;;;;4982693;28;20081;-76
2023/12/07 12:02:07;;;;;;;9.77;9.17;;;1.70;99.90;;;;;;4973367;28;20388;-76
2023/12/07 12:04:33;;;;;;;13.83;10.87;;;1.80;99.90;;;;;;5002043;28;20057;-76
2023/12/07 12:06:58;;;;;;;12.07;10.80;;;1.80;99.90;;;;;;5000121;28;20574;-75
2023/12/07 12:09:24;;;;;;;11.77;10.67;;;1.80;99.90;;;;;;4998960;28;20373;-75
2023/12/07 12:11:50;;;;;;;10.03;9.00;;;1.80;99.90;;;;;;4990018;28;20053;-75
2023/12/07 12:14:17;;;;;;;11.47;10.50;;;1.90;99.90;;;;;;5000761;28;20042;-75
2023/12/07 12:16:44;;;;;;;12.07;9.27;;;1.90;99.90;;;;;;4999003;28;20050;-76
2023/12/07 12:19:10;;;;;;;10.63;9.37;;;1.90;99.90;;;;;;4965163;28;20054;-75
2023/12/07 12:21:38;;;;;;;9.60;8.87;;;1.90;99.90;;;;;;5004262;28;20590;-75
2023/12/07 12:24:05;;;;;;;12.47;11.47;;;1.90;99.90;;;;;;4983210;28;20046;-75
2023/12/07 12:26:34;;;;;;;10.90;9.97;;;1.90;99.90;;;;;;4998444;28;20436;-75
2023/12/07 12:29:01;;;;;;;17.20;10.80;;;1.90;99.90;;;;;;4991234;28;20038;-75
2023/12/07 12:31:26;;;;;;;12.27;10.60;;;1.80;99.90;;;;;;4992277;28;20618;-75
2023/12/07 12:33:53;;;;;;;15.93;8.10;;;1.80;99.90;;;;;;5000840;28;20084;-77
2023/12/07 12:36:23;;;;;;;11.87;10.00;;;1.80;99.90;;;;;;4988066;28;20131;-80
2023/12/07 12:38:50;;;;;;;15.70;10.23;;;1.70;99.90;;;;;;4986544;28;20519;-77
2023/12/07 12:41:18;;;;;;;11.30;8.30;;;1.70;99.90;;;;;;4976397;28;20034;-81
2023/12/07 12:43:44;;;;;;;8.83;7.90;;;1.70;99.90;;;;;;4989712;28;20039;-79
2023/12/07 12:46:11;;;;;;;22.10;7.97;;;1.60;99.90;;;;;;4991475;28;20060;-79
2023/12/07 12:48:52;;;;;;;9.60;8.53;;;1.60;99.90;;;;;;4991762;28;20046;-81